sensor_id;sensor_type;location;lat;lon;timestamp;temperature;humidity
19864;DHT22;10094;48.820;9.226;2023-04-28T00:00:57;11.80;99.90
19864;DHT22;10094;48.820;9.226;2023-04-28T00:07:40;12.00;99.90
19864;DHT22;10094;48.820;9.226;2023-04-28T00:14:22;12.20;99.90
19864;DHT22;10094;48.820;9.226;2023-04-28T00:21:04;12.30;99.90
19864;DHT22;10094;48.820;9.226;2023-04-28T00:27:47;12.30;99.90
19864;DHT22;10094;48.820;9.226;2023-04-28T00:34:33;12.40;99.90
19864;DHT22;10094;48.820;9.226;2023-04-28T00:41:18;12.40;99.90
19864;DHT22;10094;48.820;9.226;2023-04-28T00:48:01;12.40;99.90
19864;DHT22;10094;48.820;9.226;2023-04-28T00:54:44;12.40;99.90
19864;DHT22;10094;48.820;9.226;2023-04-28T01:01:28;12.40;99.90
19864;DHT22;10094;48.820;9.226;2023-04-28T01:08:11;12.40;99.90
19864;DHT22;10094;48.820;9.226;2023-04-28T01:14:53;12.40;99.90
19864;DHT22;10094;48.820;9.226;2023-04-28T01:21:36;12.50;99.90
19864;DHT22;10094;48.820;9.226;2023-04-28T01:28:27;12.50;99.90
19864;DHT22;10094;48.820;9.226;2023-04-28T01:35:10;12.60;99.90
19864;DHT22;10094;48.820;9.226;2023-04-28T01:41:52;12.60;99.90
19864;DHT22;10094;48.820;9.226;2023-04-28T01:48:35;12.70;99.90
19864;DHT22;10094;48.820;9.226;2023-04-28T01:55:17;12.70;99.90
19864;DHT22;10094;48.820;9.226;2023-04-28T02:01:59;12.70;99.90
19864;DHT22;10094;48.820;9.226;2023-04-28T02:08:42;12.90;99.90
19864;DHT22;10094;48.820;9.226;2023-04-28T02:15:26;12.80;99.90
19864;DHT22;10094;48.820;9.226;2023-04-28T02:22:09;12.80;99.90
19864;DHT22;10094;48.820;9.226;2023-04-28T02:28:55;12.90;99.90
19864;DHT22;10094;48.820;9.226;2023-04-28T02:35:37;12.90;99.90
19864;DHT22;10094;48.820;9.226;2023-04-28T02:42:20;12.90;99.90
19864;DHT22;10094;48.820;9.226;2023-04-28T02:49:02;12.80;99.90
19864;DHT22;10094;48.820;9.226;2023-04-28T02:55:45;12.90;99.90
19864;DHT22;10094;48.820;9.226;2023-04-28T03:02:28;12.90;99.90
19864;DHT22;10094;48.820;9.226;2023-04-28T03:09:10;12.90;99.90
19864;DHT22;10094;48.820;9.226;2023-04-28T03:15:53;12.70;99.90
19864;DHT22;10094;48.820;9.226;2023-04-28T03:22:36;12.30;99.90
19864;DHT22;10094;48.820;9.226;2023-04-28T03:29:18;12.00;99.90
19864;DHT22;10094;48.820;9.226;2023-04-28T03:36:00;12.20;99.90
19864;DHT22;10094;48.820;9.226;2023-04-28T03:42:43;12.40;99.90
19864;DHT22;10094;48.820;9.226;2023-04-28T03:49:34;12.30;99.90
19864;DHT22;10094;48.820;9.226;2023-04-28T03:56:16;12.40;99.90
19864;DHT22;10094;48.820;9.226;2023-04-28T04:02:59;12.60;99.90
19864;DHT22;10094;48.820;9.226;2023-04-28T04:09:42;12.50;99.90
19864;DHT22;10094;48.820;9.226;2023-04-28T04:16:24;12.50;99.90
19864;DHT22;10094;48.820;9.226;2023-04-28T04:23:10;12.60;99.90
19864;DHT22;10094;48.820;9.226;2023-04-28T04:29:52;12.60;99.90
19864;DHT22;10094;48.820;9.226;2023-04-28T04:36:35;12.60;99.90
19864;DHT22;10094;48.820;9.226;2023-04-28T04:43:18;12.50;99.90
19864;DHT22;10094;48.820;9.226;2023-04-28T04:50:04;12.40;99.90
19864;DHT22;10094;48.820;9.226;2023-04-28T04:56:46;12.40;99.90
19864;DHT22;10094;48.820;9.226;2023-04-28T05:03:36;12.50;99.90
19864;DHT22;10094;48.820;9.226;2023-04-28T05:10:19;12.30;99.90
19864;DHT22;10094;48.820;9.226;2023-04-28T05:17:02;12.30;99.90
19864;DHT22;10094;48.820;9.226;2023-04-28T05:23:50;12.60;99.90
19864;DHT22;10094;48.820;9.226;2023-04-28T05:30:33;12.40;99.90
19864;DHT22;10094;48.820;9.226;2023-04-28T05:37:15;12.30;99.90
19864;DHT22;10094;48.820;9.226;2023-04-28T05:44:00;12.40;99.90
19864;DHT22;10094;48.820;9.226;2023-04-28T05:50:42;12.70;99.90
19864;DHT22;10094;48.820;9.226;2023-04-28T05:57:25;12.80;99.90
19864;DHT22;10094;48.820;9.226;2023-04-28T06:04:08;12.80;99.90
19864;DHT22;10094;48.820;9.226;2023-04-28T06:10:51;12.80;99.90
19864;DHT22;10094;48.820;9.226;2023-04-28T06:17:35;12.70;99.90
19864;DHT22;10094;48.820;9.226;2023-04-28T06:24:17;12.60;99.90
19864;DHT22;10094;48.820;9.226;2023-04-28T06:31:01;12.40;99.90
19864;DHT22;10094;48.820;9.226;2023-04-28T06:37:44;12.50;99.90
19864;DHT22;10094;48.820;9.226;2023-04-28T06:44:26;12.30;99.90
19864;DHT22;10094;48.820;9.226;2023-04-28T06:51:10;12.40;99.90
19864;DHT22;10094;48.820;9.226;2023-04-28T06:57:53;12.50;99.90
19864;DHT22;10094;48.820;9.226;2023-04-28T07:04:36;12.50;99.90
19864;DHT22;10094;48.820;9.226;2023-04-28T07:11:18;12.60;99.90
19864;DHT22;10094;48.820;9.226;2023-04-28T07:18:00;12.60;99.90
19864;DHT22;10094;48.820;9.226;2023-04-28T07:24:43;12.60;99.90
19864;DHT22;10094;48.820;9.226;2023-04-28T07:31:25;12.70;99.90
19864;DHT22;10094;48.820;9.226;2023-04-28T07:38:08;12.80;99.90
19864;DHT22;10094;48.820;9.226;2023-04-28T07:44:50;12.90;99.90
19864;DHT22;10094;48.820;9.226;2023-04-28T07:51:33;12.90;99.90
19864;DHT22;10094;48.820;9.226;2023-04-28T07:58:15;13.10;99.90
19864;DHT22;10094;48.820;9.226;2023-04-28T08:04:58;13.30;99.90
19864;DHT22;10094;48.820;9.226;2023-04-28T08:11:40;13.50;99.90
19864;DHT22;10094;48.820;9.226;2023-04-28T08:18:24;13.50;99.90
19864;DHT22;10094;48.820;9.226;2023-04-28T08:25:07;13.40;99.90
19864;DHT22;10094;48.820;9.226;2023-04-28T08:31:49;13.20;99.90
19864;DHT22;10094;48.820;9.226;2023-04-28T08:38:32;13.00;99.90
19864;DHT22;10094;48.820;9.226;2023-04-28T08:45:15;13.20;99.90
19864;DHT22;10094;48.820;9.226;2023-04-28T08:51:59;13.40;99.90
19864;DHT22;10094;48.820;9.226;2023-04-28T08:58:41;13.80;99.90
19864;DHT22;10094;48.820;9.226;2023-04-28T09:05:24;14.20;99.90
19864;DHT22;10094;48.820;9.226;2023-04-28T09:12:07;14.60;99.90
19864;DHT22;10094;48.820;9.226;2023-04-28T09:18:56;14.80;99.90
19864;DHT22;10094;48.820;9.226;2023-04-28T09:25:39;14.70;99.90
19864;DHT22;10094;48.820;9.226;2023-04-28T09:32:22;14.70;99.90
19864;DHT22;10094;48.820;9.226;2023-04-28T09:39:05;15.10;99.90
19864;DHT22;10094;48.820;9.226;2023-04-28T09:45:48;15.40;99.90
19864;DHT22;10094;48.820;9.226;2023-04-28T09:52:32;15.30;99.90
19864;DHT22;10094;48.820;9.226;2023-04-28T09:59:16;15.40;99.90
19864;DHT22;10094;48.820;9.226;2023-04-28T10:06:01;15.50;99.90
19864;DHT22;10094;48.820;9.226;2023-04-28T10:12:43;16.50;99.90
19864;DHT22;10094;48.820;9.226;2023-04-28T10:19:26;17.50;99.90
19864;DHT22;10094;48.820;9.226;2023-04-28T10:26:12;17.90;99.90
19864;DHT22;10094;48.820;9.226;2023-04-28T10:40:33;18.90;99.90
19864;DHT22;10094;48.820;9.226;2023-04-28T10:47:16;19.70;99.90
19864;DHT22;10094;48.820;9.226;2023-04-28T11:00:41;19.40;99.90
19864;DHT22;10094;48.820;9.226;2023-04-28T11:07:24;19.40;99.90
19864;DHT22;10094;48.820;9.226;2023-04-28T11:20:59;19.80;99.90
19864;DHT22;10094;48.820;9.226;2023-04-28T11:27:41;20.10;99.90
19864;DHT22;10094;48.820;9.226;2023-04-28T11:34:24;20.00;99.90
19864;DHT22;10094;48.820;9.226;2023-04-28T11:41:06;20.20;99.90
19864;DHT22;10094;48.820;9.226;2023-04-28T11:47:49;20.60;99.90
19864;DHT22;10094;48.820;9.226;2023-04-28T11:54:31;20.30;99.90
19864;DHT22;10094;48.820;9.226;2023-04-28T12:01:14;20.30;99.90
19864;DHT22;10094;48.820;9.226;2023-04-28T12:07:57;20.10;99.90
19864;DHT22;10094;48.820;9.226;2023-04-28T12:15:01;20.40;99.90
19864;DHT22;10094;48.820;9.226;2023-04-28T12:22:02;20.50;99.90
19864;DHT22;10094;48.820;9.226;2023-04-28T12:28:45;20.40;99.90
19864;DHT22;10094;48.820;9.226;2023-04-28T12:35:28;20.10;99.90
19864;DHT22;10094;48.820;9.226;2023-04-28T12:42:10;18.60;99.90
19864;DHT22;10094;48.820;9.226;2023-04-28T12:48:53;18.20;99.90
19864;DHT22;10094;48.820;9.226;2023-04-28T12:55:36;17.60;99.90
19864;DHT22;10094;48.820;9.226;2023-04-28T13:02:20;17.00;99.90
19864;DHT22;10094;48.820;9.226;2023-04-28T13:09:02;16.40;99.90
19864;DHT22;10094;48.820;9.226;2023-04-28T13:15:45;17.20;99.90
19864;DHT22;10094;48.820;9.226;2023-04-28T13:22:27;17.60;99.90
19864;DHT22;10094;48.820;9.226;2023-04-28T13:29:10;17.90;99.90
19864;DHT22;10094;48.820;9.226;2023-04-28T13:35:52;18.40;99.90
19864;DHT22;10094;48.820;9.226;2023-04-28T13:42:36;18.70;99.90
19864;DHT22;10094;48.820;9.226;2023-04-28T13:49:19;19.20;99.90
19864;DHT22;10094;48.820;9.226;2023-04-28T13:56:01;19.00;99.90
19864;DHT22;10094;48.820;9.226;2023-04-28T14:02:43;18.60;99.90
19864;DHT22;10094;48.820;9.226;2023-04-28T14:09:27;17.60;99.90
19864;DHT22;10094;48.820;9.226;2023-04-28T14:16:09;18.00;99.90
19864;DHT22;10094;48.820;9.226;2023-04-28T14:22:51;17.90;99.90
19864;DHT22;10094;48.820;9.226;2023-04-28T14:29:34;18.30;99.90
19864;DHT22;10094;48.820;9.226;2023-04-28T14:36:16;17.60;99.90
19864;DHT22;10094;48.820;9.226;2023-04-28T14:42:58;17.40;99.90
19864;DHT22;10094;48.820;9.226;2023-04-28T14:49:41;17.70;99.90
19864;DHT22;10094;48.820;9.226;2023-04-28T14:56:23;18.30;99.90
19864;DHT22;10094;48.820;9.226;2023-04-28T15:03:06;18.20;99.90
19864;DHT22;10094;48.820;9.226;2023-04-28T15:09:49;18.80;99.90
19864;DHT22;10094;48.820;9.226;2023-04-28T15:16:32;18.50;99.90
19864;DHT22;10094;48.820;9.226;2023-04-28T15:23:14;18.20;99.90
19864;DHT22;10094;48.820;9.226;2023-04-28T15:29:57;18.10;99.90
19864;DHT22;10094;48.820;9.226;2023-04-28T15:36:39;18.20;99.90
19864;DHT22;10094;48.820;9.226;2023-04-28T15:43:22;18.50;99.90
19864;DHT22;10094;48.820;9.226;2023-04-28T15:50:09;18.30;99.90
19864;DHT22;10094;48.820;9.226;2023-04-28T15:56:52;17.90;99.90
19864;DHT22;10094;48.820;9.226;2023-04-28T16:03:35;17.50;99.90
19864;DHT22;10094;48.820;9.226;2023-04-28T16:10:18;17.40;99.90
19864;DHT22;10094;48.820;9.226;2023-04-28T16:17:00;17.10;99.90
19864;DHT22;10094;48.820;9.226;2023-04-28T16:23:43;17.10;99.90
19864;DHT22;10094;48.820;9.226;2023-04-28T16:30:27;17.10;99.90
19864;DHT22;10094;48.820;9.226;2023-04-28T16:37:09;17.20;99.90
19864;DHT22;10094;48.820;9.226;2023-04-28T16:43:52;17.00;99.90
19864;DHT22;10094;48.820;9.226;2023-04-28T16:50:35;16.70;99.90
19864;DHT22;10094;48.820;9.226;2023-04-28T16:57:18;16.80;99.90
19864;DHT22;10094;48.820;9.226;2023-04-28T17:04:01;17.10;99.90
19864;DHT22;10094;48.820;9.226;2023-04-28T17:10:47;17.40;99.90
19864;DHT22;10094;48.820;9.226;2023-04-28T17:17:30;17.40;99.90
19864;DHT22;10094;48.820;9.226;2023-04-28T17:24:13;17.40;99.90
19864;DHT22;10094;48.820;9.226;2023-04-28T17:30:55;17.40;99.90
19864;DHT22;10094;48.820;9.226;2023-04-28T17:37:38;17.40;99.90
19864;DHT22;10094;48.820;9.226;2023-04-28T17:44:20;17.40;99.90
19864;DHT22;10094;48.820;9.226;2023-04-28T17:51:02;17.30;99.90
19864;DHT22;10094;48.820;9.226;2023-04-28T17:57:45;17.20;99.90
19864;DHT22;10094;48.820;9.226;2023-04-28T18:04:28;17.00;99.90
19864;DHT22;10094;48.820;9.226;2023-04-28T18:11:10;16.80;99.90
19864;DHT22;10094;48.820;9.226;2023-04-28T18:17:53;16.60;99.90
19864;DHT22;10094;48.820;9.226;2023-04-28T18:24:35;16.40;99.90
19864;DHT22;10094;48.820;9.226;2023-04-28T18:31:18;16.20;99.90
19864;DHT22;10094;48.820;9.226;2023-04-28T18:38:01;15.90;99.90
19864;DHT22;10094;48.820;9.226;2023-04-28T18:44:44;15.70;99.90
19864;DHT22;10094;48.820;9.226;2023-04-28T18:51:26;15.50;99.90
19864;DHT22;10094;48.820;9.226;2023-04-28T18:58:08;15.30;99.90
19864;DHT22;10094;48.820;9.226;2023-04-28T19:04:51;15.10;99.90
19864;DHT22;10094;48.820;9.226;2023-04-28T19:11:34;15.00;99.90
19864;DHT22;10094;48.820;9.226;2023-04-28T19:18:16;14.90;99.90
19864;DHT22;10094;48.820;9.226;2023-04-28T19:24:59;14.70;99.90
19864;DHT22;10094;48.820;9.226;2023-04-28T19:31:42;14.60;99.90
19864;DHT22;10094;48.820;9.226;2023-04-28T19:38:25;14.40;99.90
19864;DHT22;10094;48.820;9.226;2023-04-28T19:45:08;14.30;99.90
19864;DHT22;10094;48.820;9.226;2023-04-28T19:51:51;14.20;99.90
19864;DHT22;10094;48.820;9.226;2023-04-28T19:58:34;14.00;99.90
19864;DHT22;10094;48.820;9.226;2023-04-28T20:05:17;13.90;99.90
19864;DHT22;10094;48.820;9.226;2023-04-28T20:12:01;13.90;99.90
19864;DHT22;10094;48.820;9.226;2023-04-28T20:18:45;13.80;99.90
19864;DHT22;10094;48.820;9.226;2023-04-28T20:25:27;13.80;99.90
19864;DHT22;10094;48.820;9.226;2023-04-28T20:32:10;13.50;99.90
19864;DHT22;10094;48.820;9.226;2023-04-28T20:38:52;13.30;99.90
19864;DHT22;10094;48.820;9.226;2023-04-28T20:45:35;13.30;99.90
19864;DHT22;10094;48.820;9.226;2023-04-28T20:52:17;13.30;99.90
19864;DHT22;10094;48.820;9.226;2023-04-28T20:59:00;13.30;99.90
19864;DHT22;10094;48.820;9.226;2023-04-28T21:05:43;13.30;99.90
19864;DHT22;10094;48.820;9.226;2023-04-28T21:12:27;13.30;99.90
19864;DHT22;10094;48.820;9.226;2023-04-28T21:19:09;13.30;99.90
19864;DHT22;10094;48.820;9.226;2023-04-28T21:25:52;13.30;99.90
19864;DHT22;10094;48.820;9.226;2023-04-28T21:32:35;13.40;99.90
19864;DHT22;10094;48.820;9.226;2023-04-28T21:39:17;13.40;99.90
19864;DHT22;10094;48.820;9.226;2023-04-28T21:45:59;13.50;99.90
19864;DHT22;10094;48.820;9.226;2023-04-28T21:52:42;13.60;99.90
19864;DHT22;10094;48.820;9.226;2023-04-28T21:59:24;13.60;99.90
19864;DHT22;10094;48.820;9.226;2023-04-28T22:06:07;13.50;99.90
19864;DHT22;10094;48.820;9.226;2023-04-28T22:12:50;13.40;99.90
19864;DHT22;10094;48.820;9.226;2023-04-28T22:19:32;13.30;99.90
19864;DHT22;10094;48.820;9.226;2023-04-28T22:26:15;13.20;99.90
19864;DHT22;10094;48.820;9.226;2023-04-28T22:32:57;13.10;99.90
19864;DHT22;10094;48.820;9.226;2023-04-28T22:39:40;13.00;99.90
19864;DHT22;10094;48.820;9.226;2023-04-28T22:46:22;12.80;99.90
19864;DHT22;10094;48.820;9.226;2023-04-28T22:53:04;12.70;99.90
19864;DHT22;10094;48.820;9.226;2023-04-28T22:59:47;12.60;99.90
19864;DHT22;10094;48.820;9.226;2023-04-28T23:06:29;12.60;99.90
19864;DHT22;10094;48.820;9.226;2023-04-28T23:13:13;12.60;99.90
19864;DHT22;10094;48.820;9.226;2023-04-28T23:19:55;12.60;99.90
19864;DHT22;10094;48.820;9.226;2023-04-28T23:26:38;12.70;99.90
19864;DHT22;10094;48.820;9.226;2023-04-28T23:33:20;12.60;99.90
19864;DHT22;10094;48.820;9.226;2023-04-28T23:40:03;12.50;99.90
19864;DHT22;10094;48.820;9.226;2023-04-28T23:46:45;12.60;99.90
19864;DHT22;10094;48.820;9.226;2023-04-28T23:53:28;12.50;99.90
